createdAt,value
2019-01-08T00:00:28.906Z,6.30
2019-01-08T00:02:56.995Z,5.20
2019-01-08T00:05:25.525Z,4.90
2019-01-08T00:07:53.894Z,5.60
2019-01-08T00:10:22.370Z,4.53
2019-01-08T00:12:50.943Z,5.00
2019-01-08T00:15:19.729Z,4.35
2019-01-08T00:17:48.273Z,3.90
2019-01-08T00:20:16.662Z,3.55
2019-01-08T00:22:44.814Z,4.30
2019-01-08T00:25:12.826Z,3.92
2019-01-08T00:27:41.711Z,3.60
2019-01-08T00:30:10.342Z,3.92
2019-01-08T00:32:39.472Z,4.13
2019-01-08T00:35:09.600Z,3.70
2019-01-08T00:37:39.622Z,3.20
2019-01-08T00:40:08.417Z,3.45
2019-01-08T00:42:36.553Z,3.57
2019-01-08T00:45:04.848Z,3.50
2019-01-08T00:47:33.298Z,4.00
2019-01-08T00:50:01.730Z,3.83
2019-01-08T00:52:30.153Z,3.30
2019-01-08T00:54:58.994Z,3.75
2019-01-08T00:57:27.431Z,3.12
2019-01-08T00:59:56.077Z,3.60
2019-01-08T01:02:24.481Z,3.70
2019-01-08T01:04:52.529Z,3.58
2019-01-08T01:07:20.561Z,3.87
2019-01-08T01:09:48.697Z,3.50
2019-01-08T01:12:16.974Z,3.85
2019-01-08T01:14:45.517Z,3.70
2019-01-08T01:17:14.121Z,3.95
2019-01-08T01:19:42.208Z,3.90
2019-01-08T01:22:10.859Z,3.75
2019-01-08T01:24:39.128Z,3.70
2019-01-08T01:27:07.215Z,3.40
2019-01-08T01:29:35.320Z,3.62
2019-01-08T01:32:03.525Z,4.15
2019-01-08T01:34:31.555Z,3.70
2019-01-08T01:37:00.099Z,3.90
2019-01-08T01:39:28.837Z,4.80
2019-01-08T01:41:58.278Z,4.35
2019-01-08T01:44:26.681Z,4.25
2019-01-08T01:46:54.836Z,4.75
2019-01-08T01:49:24.718Z,4.73
2019-01-08T01:51:52.985Z,4.78
2019-01-08T01:54:21.353Z,4.87
2019-01-08T01:56:50.154Z,4.50
2019-01-08T01:59:19.017Z,4.60
2019-01-08T02:01:47.766Z,5.10
2019-01-08T02:04:16.014Z,4.65
2019-01-08T02:06:44.300Z,5.00
2019-01-08T02:09:12.621Z,4.28
2019-01-08T02:11:41.106Z,4.30
2019-01-08T02:14:10.961Z,4.50
2019-01-08T02:16:39.239Z,5.08
2019-01-08T02:19:08.100Z,4.37
2019-01-08T02:21:36.137Z,4.87
2019-01-08T02:24:04.263Z,5.10
2019-01-08T02:26:32.408Z,4.87
2019-01-08T02:29:00.623Z,5.17
2019-01-08T02:31:29.206Z,4.90
2019-01-08T02:33:58.303Z,5.12
2019-01-08T02:36:26.645Z,5.10
2019-01-08T02:38:54.949Z,5.40
2019-01-08T02:41:23.354Z,5.83
2019-01-08T02:43:51.711Z,5.58
2019-01-08T02:46:20.597Z,5.30
2019-01-08T02:48:49.767Z,4.62
2019-01-08T02:51:18.564Z,4.50
2019-01-08T02:53:46.930Z,5.20
2019-01-08T02:56:15.921Z,4.80
2019-01-08T02:58:44.388Z,4.50
2019-01-08T03:01:12.989Z,4.22
2019-01-08T03:03:41.546Z,4.00
2019-01-08T03:06:09.691Z,3.45
2019-01-08T03:08:38.162Z,3.52
2019-01-08T03:11:06.242Z,3.80
2019-01-08T03:13:34.581Z,5.57
2019-01-08T03:16:03.089Z,5.05
2019-01-08T03:18:33.452Z,4.40
2019-01-08T03:21:01.769Z,5.40
2019-01-08T03:23:30.273Z,4.92
2019-01-08T03:25:58.902Z,4.65
2019-01-08T03:28:27.561Z,4.80
2019-01-08T03:30:56.104Z,5.12
2019-01-08T03:33:26.272Z,4.12
2019-01-08T03:35:54.701Z,5.05
2019-01-08T03:38:22.946Z,5.70
2019-01-08T03:40:51.141Z,5.05
2019-01-08T03:43:19.594Z,5.00
2019-01-08T03:45:49.104Z,5.37
2019-01-08T03:48:17.797Z,4.70
2019-01-08T03:50:45.843Z,5.50
2019-01-08T03:53:13.904Z,4.60
2019-01-08T03:55:42.458Z,4.80
2019-01-08T03:58:10.894Z,4.40
2019-01-08T04:00:39.066Z,4.70
2019-01-08T04:03:08.282Z,4.50
2019-01-08T04:05:37.221Z,4.12
2019-01-08T04:08:05.685Z,4.28
2019-01-08T04:10:34.257Z,4.17
2019-01-08T04:13:02.332Z,3.45
2019-01-08T04:15:30.452Z,4.25
2019-01-08T04:18:00.180Z,3.40
2019-01-08T04:20:28.945Z,5.28
2019-01-08T04:22:57.068Z,3.08
2019-01-08T04:25:26.757Z,3.03
2019-01-08T04:27:54.949Z,3.17
2019-01-08T04:30:23.081Z,3.30
2019-01-08T04:32:51.521Z,2.85
2019-01-08T04:35:20.309Z,2.30
2019-01-08T04:37:50.188Z,2.10
2019-01-08T04:40:18.918Z,2.00
2019-01-08T04:42:47.311Z,2.50
2019-01-08T04:45:15.778Z,2.22
2019-01-08T04:47:43.991Z,2.10
2019-01-08T04:50:12.950Z,2.10
2019-01-08T04:52:41.631Z,2.45
2019-01-08T04:55:09.670Z,2.90
2019-01-08T04:57:38.081Z,3.20
2019-01-08T05:00:06.569Z,3.17
2019-01-08T05:02:35.495Z,3.70
2019-01-08T05:05:03.670Z,3.30
2019-01-08T05:07:32.523Z,4.03
2019-01-08T05:10:00.845Z,3.30
2019-01-08T05:12:29.015Z,3.10
2019-01-08T05:14:57.893Z,3.47
2019-01-08T05:17:26.566Z,2.52
2019-01-08T05:19:55.226Z,2.90
2019-01-08T05:22:23.621Z,2.80
2019-01-08T05:24:52.509Z,3.00
2019-01-08T05:27:20.989Z,2.85
2019-01-08T05:29:49.614Z,2.87
2019-01-08T05:32:18.070Z,3.00
2019-01-08T05:34:46.798Z,3.10
2019-01-08T05:37:15.223Z,3.37
2019-01-08T05:39:43.437Z,3.10
2019-01-08T05:42:11.569Z,3.30
2019-01-08T05:44:39.856Z,3.60
2019-01-08T05:47:08.885Z,3.50
2019-01-08T05:49:36.965Z,3.33
2019-01-08T05:52:05.076Z,3.58
2019-01-08T05:54:34.902Z,3.22
2019-01-08T05:57:03.035Z,2.98
2019-01-08T05:59:31.106Z,3.70
2019-01-08T06:01:59.553Z,3.40
2019-01-08T06:04:28.312Z,3.95
2019-01-08T06:06:56.350Z,3.85
2019-01-08T06:09:24.505Z,3.75
2019-01-08T06:11:53.467Z,4.25
2019-01-08T06:14:22.246Z,3.55
2019-01-08T06:16:50.561Z,3.93
2019-01-08T06:19:18.637Z,3.10
2019-01-08T06:21:47.181Z,3.50
2019-01-08T06:24:15.518Z,3.05
2019-01-08T06:26:43.670Z,3.12
2019-01-08T06:29:12.105Z,2.95
2019-01-08T06:31:41.928Z,3.67
2019-01-08T06:34:11.623Z,3.30
2019-01-08T06:36:40.010Z,3.10
2019-01-08T06:39:08.655Z,3.50
2019-01-08T06:41:36.722Z,2.60
2019-01-08T06:44:05.051Z,3.75
2019-01-08T06:46:33.498Z,3.60
2019-01-08T06:49:02.063Z,3.10
2019-01-08T06:51:30.142Z,2.90
2019-01-08T06:53:58.843Z,2.50
2019-01-08T06:56:27.250Z,2.02
2019-01-08T06:58:55.773Z,2.10
2019-01-08T07:01:25.093Z,2.30
2019-01-08T07:03:55.509Z,2.15
2019-01-08T07:06:23.665Z,2.20
2019-01-08T07:08:51.801Z,2.10
2019-01-08T07:11:20.074Z,2.80
2019-01-08T07:13:48.819Z,2.15
2019-01-08T07:16:17.327Z,2.35
2019-01-08T07:18:45.487Z,2.00
2019-01-08T07:21:14.050Z,2.35
2019-01-08T07:23:42.546Z,2.23
2019-01-08T07:26:11.123Z,2.30
2019-01-08T07:28:39.436Z,2.00
2019-01-08T07:31:07.885Z,2.65
2019-01-08T07:33:36.711Z,2.80
2019-01-08T07:36:04.837Z,2.87
2019-01-08T07:38:32.873Z,2.90
2019-01-08T07:41:03.113Z,3.00
2019-01-08T07:43:31.137Z,3.02
2019-01-08T07:45:59.754Z,3.20
2019-01-08T07:48:28.278Z,2.80
2019-01-08T07:50:57.390Z,3.52
2019-01-08T07:53:25.809Z,3.25
2019-01-08T07:55:55.054Z,2.50
2019-01-08T07:58:23.729Z,3.10
2019-01-08T08:00:52.260Z,2.95
2019-01-08T08:03:20.762Z,3.15
2019-01-08T08:05:49.233Z,3.10
2019-01-08T08:08:17.466Z,3.20
2019-01-08T08:10:46.426Z,3.05
2019-01-08T08:13:14.614Z,3.27
2019-01-08T08:15:43.262Z,3.00
2019-01-08T08:18:11.705Z,3.33
2019-01-08T08:20:39.972Z,3.45
2019-01-08T08:23:08.083Z,3.40
2019-01-08T08:25:36.147Z,3.30
2019-01-08T08:28:04.679Z,3.30
2019-01-08T08:30:32.850Z,2.90
2019-01-08T08:33:00.911Z,2.90
2019-01-08T08:35:29.800Z,3.00
2019-01-08T08:37:58.130Z,2.60
2019-01-08T08:40:26.609Z,2.70
2019-01-08T08:42:55.129Z,2.65
2019-01-08T08:45:23.665Z,2.57
2019-01-08T08:47:52.333Z,2.20
2019-01-08T08:50:20.896Z,2.40
2019-01-08T08:52:49.345Z,2.20
2019-01-08T08:55:17.490Z,2.20
2019-01-08T08:57:45.537Z,2.40
2019-01-08T09:00:13.582Z,2.33
2019-01-08T09:02:41.598Z,2.00
2019-01-08T09:05:10.966Z,2.40
2019-01-08T09:07:39.487Z,2.50
2019-01-08T09:10:08.089Z,2.52
2019-01-08T09:12:36.143Z,2.80
2019-01-08T09:15:05.103Z,2.70
2019-01-08T09:17:33.777Z,3.10
2019-01-08T09:20:03.676Z,2.45
2019-01-08T09:22:31.814Z,2.77
2019-01-08T09:24:59.901Z,2.80
2019-01-08T09:27:30.420Z,2.30
2019-01-08T09:30:03.280Z,1.95
2019-01-08T09:32:38.569Z,2.70
2019-01-08T09:35:12.051Z,2.45
2019-01-08T09:37:43.546Z,3.30
2019-01-08T09:40:17.820Z,3.20
2019-01-08T09:42:50.529Z,3.47
2019-01-08T09:45:26.299Z,4.83
2019-01-08T09:48:01.758Z,3.00
2019-01-08T09:50:36.331Z,3.10
2019-01-08T09:53:11.257Z,3.40
2019-01-08T09:55:40.738Z,2.85
2019-01-08T09:58:09.231Z,3.30
2019-01-08T10:00:38.085Z,2.92
2019-01-08T10:03:07.003Z,4.40
2019-01-08T10:05:35.555Z,3.10
2019-01-08T10:08:03.608Z,2.77
2019-01-08T10:10:32.016Z,3.10
2019-01-08T10:13:01.109Z,3.00
2019-01-08T10:15:31.568Z,2.90
2019-01-08T10:18:01.045Z,2.60
2019-01-08T10:20:30.959Z,2.62
2019-01-08T10:22:59.474Z,2.77
2019-01-08T10:25:27.718Z,2.30
2019-01-08T10:27:56.395Z,2.70
2019-01-08T10:30:25.242Z,2.42
2019-01-08T10:32:53.437Z,2.60
2019-01-08T10:35:22.460Z,2.12
2019-01-08T10:37:50.583Z,1.60
2019-01-08T10:40:19.108Z,2.33
2019-01-08T10:42:47.261Z,3.10
2019-01-08T10:45:15.908Z,2.60
2019-01-08T10:47:44.496Z,2.50
2019-01-08T10:50:13.138Z,2.00
2019-01-08T10:52:41.530Z,3.55
2019-01-08T10:55:10.840Z,2.00
2019-01-08T10:57:39.325Z,1.50
2019-01-08T11:00:08.638Z,1.70
2019-01-08T11:02:37.296Z,1.20
2019-01-08T11:05:05.893Z,1.22
2019-01-08T11:07:34.725Z,1.40
2019-01-08T11:10:03.893Z,1.80
2019-01-08T11:12:33.010Z,1.32
2019-01-08T11:15:01.479Z,1.85
2019-01-08T11:17:32.463Z,2.17
2019-01-08T11:20:00.990Z,2.03
2019-01-08T11:22:29.085Z,1.60
2019-01-08T11:24:57.251Z,2.12
2019-01-08T11:27:25.646Z,2.00
2019-01-08T11:29:54.065Z,1.90
2019-01-08T11:32:22.712Z,1.70
2019-01-08T11:34:51.514Z,1.67
2019-01-08T11:37:20.054Z,1.40
2019-01-08T11:39:48.188Z,1.15
2019-01-08T11:42:16.445Z,1.02
2019-01-08T11:44:46.031Z,0.93
2019-01-08T11:47:14.436Z,0.90
2019-01-08T11:49:43.446Z,0.70
2019-01-08T11:52:11.794Z,0.95
2019-01-08T11:54:41.191Z,0.97
2019-01-08T11:57:09.756Z,0.88
2019-01-08T11:59:38.332Z,0.90
2019-01-08T12:02:07.528Z,0.80
2019-01-08T12:04:35.983Z,0.80
2019-01-08T12:07:04.771Z,1.10
2019-01-08T12:09:33.789Z,1.00
2019-01-08T12:12:02.002Z,0.70
2019-01-08T12:14:31.014Z,1.00
2019-01-08T12:17:01.461Z,0.90
2019-01-08T12:19:30.553Z,0.80
2019-01-08T12:21:58.678Z,0.70
2019-01-08T12:24:26.812Z,0.93
2019-01-08T12:26:56.094Z,1.60
2019-01-08T12:29:24.435Z,1.30
2019-01-08T12:31:52.602Z,2.00
2019-01-08T12:34:20.709Z,2.60
2019-01-08T12:36:48.998Z,1.30
2019-01-08T12:39:17.919Z,1.40
2019-01-08T12:41:46.154Z,1.10
2019-01-08T12:44:14.250Z,1.27
2019-01-08T12:46:42.632Z,0.93
2019-01-08T12:49:11.010Z,1.10
2019-01-08T12:51:39.537Z,0.90
2019-01-08T12:54:08.094Z,1.20
2019-01-08T12:56:36.300Z,1.50
2019-01-08T12:59:04.497Z,1.85
2019-01-08T13:01:33.018Z,1.50
2019-01-08T13:04:01.074Z,1.30
2019-01-08T13:06:29.875Z,3.02
2019-01-08T13:08:58.262Z,1.70
2019-01-08T13:11:26.344Z,1.40
2019-01-08T13:13:54.870Z,1.00
2019-01-08T13:16:24.556Z,1.30
2019-01-08T13:18:52.639Z,2.00
2019-01-08T13:21:21.132Z,2.08
2019-01-08T13:23:49.301Z,1.85
2019-01-08T13:26:19.301Z,1.60
2019-01-08T13:28:48.331Z,1.30
2019-01-08T13:31:17.294Z,1.75
2019-01-08T13:33:45.402Z,1.50
2019-01-08T13:36:13.983Z,1.22
2019-01-08T13:38:42.045Z,1.17
2019-01-08T13:41:10.313Z,1.40
2019-01-08T13:43:38.879Z,1.10
2019-01-08T13:46:08.505Z,1.00
2019-01-08T13:48:36.968Z,1.30
2019-01-08T13:51:05.771Z,1.22
2019-01-08T13:53:34.037Z,1.20
2019-01-08T13:56:02.132Z,1.10
2019-01-08T13:58:30.646Z,1.10
2019-01-08T14:00:59.565Z,0.90
2019-01-08T14:03:27.859Z,1.10
2019-01-08T14:05:56.914Z,1.00
2019-01-08T14:08:25.233Z,2.15
2019-01-08T14:10:56.605Z,1.10
2019-01-08T14:13:24.381Z,1.00
2019-01-08T14:15:54.997Z,1.00
2019-01-08T14:18:23.295Z,1.07
2019-01-08T14:20:51.707Z,1.30
2019-01-08T14:23:20.044Z,0.97
2019-01-08T14:25:50.238Z,1.00
2019-01-08T14:28:18.960Z,1.00
2019-01-08T14:30:47.978Z,1.07
2019-01-08T14:33:16.190Z,1.10
2019-01-08T14:35:44.266Z,1.10
2019-01-08T14:38:12.727Z,1.07
2019-01-08T14:40:41.506Z,1.12
2019-01-08T14:43:14.371Z,1.35
2019-01-08T14:45:40.005Z,1.00
2019-01-08T14:48:08.187Z,1.10
2019-01-08T14:50:36.590Z,1.10
2019-01-08T14:53:04.770Z,1.10
2019-01-08T14:55:33.220Z,1.40
2019-01-08T14:58:01.410Z,1.25
2019-01-08T15:00:38.459Z,1.20
2019-01-08T15:03:12.918Z,1.10
2019-01-08T15:05:44.443Z,1.10
2019-01-08T15:08:17.605Z,1.90
2019-01-08T15:10:51.103Z,2.45
2019-01-08T15:13:24.779Z,1.42
2019-01-08T15:16:04.529Z,1.40
2019-01-08T15:18:45.546Z,1.60
2019-01-08T15:21:18.892Z,1.60
2019-01-08T15:23:50.201Z,1.17
2019-01-08T15:26:19.270Z,2.12
2019-01-08T15:28:47.627Z,2.67
2019-01-08T15:31:16.776Z,1.75
2019-01-08T15:33:45.710Z,1.10
2019-01-08T15:36:13.862Z,1.50
2019-01-08T15:38:42.373Z,1.30
2019-01-08T15:41:10.746Z,1.20
2019-01-08T15:43:38.876Z,1.10
2019-01-08T15:46:07.697Z,2.05
2019-01-08T15:48:36.981Z,1.57
2019-01-08T15:51:05.245Z,3.10
2019-01-08T15:53:33.802Z,3.05
2019-01-08T15:56:02.414Z,1.50
2019-01-08T15:58:32.351Z,1.83
2019-01-08T16:01:00.783Z,1.50
2019-01-08T16:03:29.277Z,1.40
2019-01-08T16:05:59.082Z,1.25
2019-01-08T16:08:28.544Z,1.15
2019-01-08T16:10:57.605Z,1.20
2019-01-08T16:13:27.143Z,1.20
2019-01-08T16:15:56.510Z,1.12
2019-01-08T16:18:25.025Z,1.23
2019-01-08T16:20:54.876Z,1.10
2019-01-08T16:23:23.543Z,1.17
2019-01-08T16:25:52.021Z,1.00
2019-01-08T16:28:20.268Z,1.00
2019-01-08T16:30:48.922Z,3.10
2019-01-08T16:33:17.840Z,1.45
2019-01-08T16:35:45.987Z,1.70
2019-01-08T16:38:14.109Z,1.60
2019-01-08T16:40:42.283Z,1.80
2019-01-08T16:43:10.726Z,1.30
2019-01-08T16:45:39.309Z,1.30
2019-01-08T16:48:08.362Z,2.02
2019-01-08T16:50:37.042Z,2.10
2019-01-08T16:53:05.370Z,1.32
2019-01-08T16:55:34.061Z,0.90
2019-01-08T16:58:02.673Z,0.90
2019-01-08T17:00:31.843Z,1.30
2019-01-08T17:03:01.413Z,1.00
2019-01-08T17:05:30.914Z,1.07
2019-01-08T17:07:59.934Z,0.90
2019-01-08T17:10:28.861Z,0.90
2019-01-08T17:12:58.220Z,1.00
2019-01-08T17:15:27.116Z,0.90
2019-01-08T17:17:57.604Z,0.80
2019-01-08T17:20:26.929Z,1.10
2019-01-08T17:22:55.778Z,1.02
2019-01-08T17:25:35.357Z,1.60
2019-01-08T17:28:04.314Z,1.82
2019-01-08T17:30:33.361Z,1.27
2019-01-08T17:34:50.966Z,2.27
2019-01-08T17:37:21.041Z,1.90
2019-01-08T17:39:49.117Z,1.90
2019-01-08T17:42:17.226Z,1.00
2019-01-08T17:44:45.565Z,1.22
2019-01-08T17:47:14.161Z,1.10
2019-01-08T17:49:42.649Z,2.08
2019-01-08T17:52:11.209Z,1.70
2019-01-08T17:54:41.639Z,1.20
2019-01-08T17:57:10.903Z,1.00
2019-01-08T17:59:39.733Z,1.40
2019-01-08T18:02:09.769Z,1.20
2019-01-08T18:04:38.172Z,1.30
2019-01-08T18:07:08.622Z,1.10
2019-01-08T18:09:37.073Z,1.20
2019-01-08T18:12:05.215Z,1.30
2019-01-08T18:14:33.382Z,1.30
2019-01-08T18:17:02.003Z,1.20
2019-01-08T18:19:30.554Z,1.47
2019-01-08T18:22:00.362Z,1.37
2019-01-08T18:24:28.905Z,1.50
2019-01-08T18:26:57.760Z,2.00
2019-01-08T18:29:27.406Z,1.30
2019-01-08T18:31:56.081Z,1.35
2019-01-08T18:34:24.763Z,2.85
2019-01-08T18:36:53.444Z,2.15
2019-01-08T18:39:22.922Z,2.20
2019-01-08T18:41:51.190Z,1.98
2019-01-08T18:44:19.974Z,2.62
2019-01-08T18:46:49.109Z,1.23
2019-01-08T18:49:17.758Z,1.50
2019-01-08T18:51:45.970Z,1.40
2019-01-08T18:54:14.069Z,1.50
2019-01-08T18:56:42.430Z,1.20
2019-01-08T18:59:11.028Z,1.10
2019-01-08T19:01:39.182Z,1.20
2019-01-08T19:04:08.238Z,1.60
2019-01-08T19:06:36.371Z,1.00
2019-01-08T19:09:24.172Z,1.15
2019-01-08T19:11:52.749Z,4.75
2019-01-08T19:14:21.685Z,1.75
2019-01-08T19:16:50.186Z,1.50
2019-01-08T19:19:19.082Z,1.30
2019-01-08T19:21:48.095Z,1.20
2019-01-08T19:24:16.565Z,1.00
2019-01-08T19:26:45.253Z,1.30
2019-01-08T19:29:13.573Z,1.30
2019-01-08T19:31:42.327Z,1.17
2019-01-08T19:34:10.542Z,1.30
2019-01-08T19:36:40.271Z,1.10
2019-01-08T19:39:08.855Z,1.60
2019-01-08T19:41:37.206Z,2.60
2019-01-08T19:44:06.066Z,1.20
2019-01-08T19:46:34.203Z,1.45
2019-01-08T19:49:02.879Z,1.40
2019-01-08T19:51:31.043Z,1.00
2019-01-08T19:53:59.182Z,1.30
2019-01-08T19:56:27.301Z,1.32
2019-01-08T19:58:56.590Z,1.25
2019-01-08T20:01:26.585Z,1.30
2019-01-08T20:03:54.711Z,1.30
2019-01-08T20:06:23.314Z,1.47
2019-01-08T20:08:52.423Z,1.25
2019-01-08T20:11:20.942Z,1.30
2019-01-08T20:13:50.126Z,1.20
2019-01-08T20:16:18.578Z,1.10
2019-01-08T20:18:46.958Z,1.00
2019-01-08T20:21:15.091Z,1.10
2019-01-08T20:23:43.676Z,1.00
2019-01-08T20:26:12.317Z,1.40
2019-01-08T20:28:40.503Z,1.10
2019-01-08T20:31:09.250Z,1.00
2019-01-08T20:33:37.310Z,1.00
2019-01-08T20:36:05.793Z,1.00
2019-01-08T20:38:33.973Z,0.95
2019-01-08T20:41:02.145Z,4.27
2019-01-08T20:43:30.285Z,2.67
2019-01-08T20:45:58.765Z,2.05
2019-01-08T20:48:27.061Z,3.40
2019-01-08T20:50:55.145Z,1.55
2019-01-08T20:53:23.292Z,1.70
2019-01-08T20:55:51.669Z,1.70
2019-01-08T20:58:27.529Z,2.42
2019-01-08T21:00:49.486Z,1.20
2019-01-08T21:03:17.951Z,1.10
2019-01-08T21:05:46.105Z,1.10
2019-01-08T21:08:14.979Z,1.22
2019-01-08T21:10:43.476Z,1.80
2019-01-08T21:13:11.919Z,1.62
2019-01-08T21:15:39.958Z,1.30
2019-01-08T21:18:08.945Z,1.20
2019-01-08T21:20:37.447Z,1.07
2019-01-08T21:23:05.633Z,2.80
2019-01-08T21:25:34.155Z,3.50
2019-01-08T21:28:02.766Z,2.25
2019-01-08T21:30:30.822Z,2.30
2019-01-08T21:32:58.997Z,1.37
2019-01-08T21:35:27.468Z,1.10
2019-01-08T21:37:55.814Z,1.00
2019-01-08T21:40:24.235Z,1.07
2019-01-08T21:42:52.824Z,1.20
2019-01-08T21:45:21.289Z,0.90
2019-01-08T21:47:50.598Z,1.00
2019-01-08T21:50:19.617Z,1.20
2019-01-08T21:52:47.857Z,1.10
2019-01-08T21:55:16.427Z,0.90
2019-01-08T21:57:44.633Z,1.20
2019-01-08T22:00:12.988Z,1.05
2019-01-08T22:02:41.968Z,0.80
2019-01-08T22:05:10.945Z,1.00
2019-01-08T22:07:40.824Z,1.07
2019-01-08T22:10:09.633Z,1.27
2019-01-08T22:12:37.782Z,0.90
2019-01-08T22:15:06.322Z,0.90
2019-01-08T22:17:34.554Z,0.90
2019-01-08T22:20:03.035Z,0.80
2019-01-08T22:22:31.193Z,0.80
2019-01-08T22:24:59.488Z,0.70
2019-01-08T22:27:27.669Z,0.90
2019-01-08T22:29:56.074Z,0.80
2019-01-08T22:32:24.566Z,0.70
2019-01-08T22:35:01.788Z,1.00
2019-01-08T22:37:22.825Z,1.00
2019-01-08T22:39:50.786Z,0.80
2019-01-08T22:42:18.839Z,0.80
2019-01-08T22:44:47.115Z,0.80
2019-01-08T22:47:15.246Z,0.70
2019-01-08T22:49:43.917Z,0.80
2019-01-08T22:52:12.048Z,0.80
2019-01-08T22:54:41.225Z,0.80
2019-01-08T22:57:09.421Z,0.80
2019-01-08T22:59:39.707Z,0.90
2019-01-08T23:02:08.182Z,0.60
2019-01-08T23:04:37.102Z,0.82
2019-01-08T23:07:05.704Z,0.87
2019-01-08T23:09:33.801Z,0.80
2019-01-08T23:12:03.081Z,0.80
2019-01-08T23:14:31.851Z,0.90
2019-01-08T23:17:00.302Z,0.80
2019-01-08T23:19:29.133Z,0.80
2019-01-08T23:21:57.233Z,0.80
2019-01-08T23:24:41.173Z,0.80
2019-01-08T23:27:07.910Z,0.90
2019-01-08T23:29:36.178Z,1.00
2019-01-08T23:32:13.164Z,0.80
2019-01-08T23:34:47.687Z,0.93
2019-01-08T23:37:26.140Z,0.90
2019-01-08T23:39:56.087Z,0.93
2019-01-08T23:42:24.183Z,1.10
2019-01-08T23:44:52.602Z,1.20
2019-01-08T23:47:21.070Z,1.20
2019-01-08T23:49:56.028Z,1.00
2019-01-08T23:52:32.813Z,1.30
2019-01-08T23:55:05.154Z,1.20
2019-01-08T23:57:45.395Z,1.20
